sensor_id;sensor_type;location;lat;lon;timestamp;pressure;altitude;pressure_sealevel;temperature;humidity
59104;BME280;51449;51.676;5.812;2023-05-19T00:00:46;102603.94;;;10.83;55.02
59104;BME280;51449;51.676;5.812;2023-05-19T00:03:30;102603.41;;;10.81;55.08
59104;BME280;51449;51.676;5.812;2023-05-19T00:06:12;102603.97;;;10.78;55.07
59104;BME280;51449;51.676;5.812;2023-05-19T00:08:57;102603.72;;;10.74;55.45
59104;BME280;51449;51.676;5.812;2023-05-19T00:11:40;102600.75;;;10.70;55.44
59104;BME280;51449;51.676;5.812;2023-05-19T00:14:21;102601.91;;;10.64;55.51
59104;BME280;51449;51.676;5.812;2023-05-19T00:17:01;102597.25;;;10.60;55.48
59104;BME280;51449;51.676;5.812;2023-05-19T00:19:42;102600.88;;;10.55;56.56
59104;BME280;51449;51.676;5.812;2023-05-19T00:22:24;102601.22;;;10.48;56.56
59104;BME280;51449;51.676;5.812;2023-05-19T00:25:05;102598.22;;;10.45;56.41
59104;BME280;51449;51.676;5.812;2023-05-19T00:27:46;102595.22;;;10.41;56.92
59104;BME280;51449;51.676;5.812;2023-05-19T00:30:27;102591.94;;;10.39;56.73
59104;BME280;51449;51.676;5.812;2023-05-19T00:33:09;102590.03;;;10.35;56.91
59104;BME280;51449;51.676;5.812;2023-05-19T00:35:50;102584.59;;;10.30;56.65
59104;BME280;51449;51.676;5.812;2023-05-19T00:38:31;102582.34;;;10.26;56.93
59104;BME280;51449;51.676;5.812;2023-05-19T00:41:12;102583.75;;;10.24;57.02
59104;BME280;51449;51.676;5.812;2023-05-19T00:43:52;102581.31;;;10.22;57.11
59104;BME280;51449;51.676;5.812;2023-05-19T00:46:33;102580.81;;;10.15;57.23
59104;BME280;51449;51.676;5.812;2023-05-19T00:49:13;102574.00;;;10.07;57.61
59104;BME280;51449;51.676;5.812;2023-05-19T00:51:54;102563.53;;;10.04;57.40
59104;BME280;51449;51.676;5.812;2023-05-19T00:54:35;102563.84;;;10.03;57.52
59104;BME280;51449;51.676;5.812;2023-05-19T00:57:16;102567.97;;;10.00;57.72
59104;BME280;51449;51.676;5.812;2023-05-19T00:59:56;102571.56;;;10.01;57.80
59104;BME280;51449;51.676;5.812;2023-05-19T01:02:37;102564.41;;;10.00;58.18
59104;BME280;51449;51.676;5.812;2023-05-19T01:05:20;102564.97;;;9.97;58.27
59104;BME280;51449;51.676;5.812;2023-05-19T01:08:00;102565.28;;;9.95;58.19
59104;BME280;51449;51.676;5.812;2023-05-19T01:10:41;102561.97;;;9.93;58.39
59104;BME280;51449;51.676;5.812;2023-05-19T01:13:21;102566.34;;;9.94;58.38
59104;BME280;51449;51.676;5.812;2023-05-19T01:16:08;102567.19;;;9.95;58.64
59104;BME280;51449;51.676;5.812;2023-05-19T01:31:27;102570.81;;;9.90;59.14
59104;BME280;51449;51.676;5.812;2023-05-19T01:34:09;102567.22;;;9.90;59.57
59104;BME280;51449;51.676;5.812;2023-05-19T01:36:54;102572.22;;;9.88;59.83
59104;BME280;51449;51.676;5.812;2023-05-19T01:39:35;102572.50;;;9.86;59.93
59104;BME280;51449;51.676;5.812;2023-05-19T01:42:16;102570.00;;;9.84;60.09
59104;BME280;51449;51.676;5.812;2023-05-19T01:44:57;102578.84;;;9.81;59.72
59104;BME280;51449;51.676;5.812;2023-05-19T01:47:42;102579.97;;;9.80;59.91
59104;BME280;51449;51.676;5.812;2023-05-19T01:50:23;102575.00;;;9.77;59.75
59104;BME280;51449;51.676;5.812;2023-05-19T01:53:04;102570.34;;;9.73;59.98
59104;BME280;51449;51.676;5.812;2023-05-19T01:55:51;102569.00;;;9.70;60.05
59104;BME280;51449;51.676;5.812;2023-05-19T02:01:46;102568.19;;;9.70;60.57
59104;BME280;51449;51.676;5.812;2023-05-19T02:04:42;102567.63;;;9.68;61.21
59104;BME280;51449;51.676;5.812;2023-05-19T02:07:51;102569.84;;;9.65;61.16
59104;BME280;51449;51.676;5.812;2023-05-19T02:10:42;102557.47;;;9.63;61.41
59104;BME280;51449;51.676;5.812;2023-05-19T02:13:34;102560.53;;;9.61;62.27
59104;BME280;51449;51.676;5.812;2023-05-19T02:16:17;102554.75;;;9.58;62.00
59104;BME280;51449;51.676;5.812;2023-05-19T02:19:00;102554.75;;;9.58;61.98
59104;BME280;51449;51.676;5.812;2023-05-19T02:21:40;102558.34;;;9.58;62.28
59104;BME280;51449;51.676;5.812;2023-05-19T02:24:21;102550.09;;;9.58;62.22
59104;BME280;51449;51.676;5.812;2023-05-19T02:27:02;102550.91;;;9.59;61.80
59104;BME280;51449;51.676;5.812;2023-05-19T02:29:42;102555.88;;;9.57;61.94
59104;BME280;51449;51.676;5.812;2023-05-19T02:32:23;102551.47;;;9.56;62.26
59104;BME280;51449;51.676;5.812;2023-05-19T02:35:04;102561.38;;;9.57;62.36
59104;BME280;51449;51.676;5.812;2023-05-19T02:37:45;102547.63;;;9.57;62.04
59104;BME280;51449;51.676;5.812;2023-05-19T02:40:26;102545.16;;;9.55;62.60
59104;BME280;51449;51.676;5.812;2023-05-19T02:43:07;102543.25;;;9.51;63.29
59104;BME280;51449;51.676;5.812;2023-05-19T02:45:47;102538.06;;;9.44;63.31
59104;BME280;51449;51.676;5.812;2023-05-19T02:48:27;102536.72;;;9.41;63.48
59104;BME280;51449;51.676;5.812;2023-05-19T02:51:08;102537.81;;;9.40;63.54
59104;BME280;51449;51.676;5.812;2023-05-19T02:53:48;102539.19;;;9.38;63.65
59104;BME280;51449;51.676;5.812;2023-05-19T02:56:29;102543.63;;;9.39;63.35
59104;BME280;51449;51.676;5.812;2023-05-19T02:59:09;102543.31;;;9.40;63.47
59104;BME280;51449;51.676;5.812;2023-05-19T03:01:54;102539.16;;;9.43;63.29
59104;BME280;51449;51.676;5.812;2023-05-19T03:04:35;102535.59;;;9.42;63.37
59104;BME280;51449;51.676;5.812;2023-05-19T03:07:21;102540.31;;;9.37;64.42
59104;BME280;51449;51.676;5.812;2023-05-19T03:10:05;102530.16;;;9.32;64.52
59104;BME280;51449;51.676;5.812;2023-05-19T03:12:47;102532.09;;;9.32;64.30
59104;BME280;51449;51.676;5.812;2023-05-19T03:15:27;102537.88;;;9.30;64.12
59104;BME280;51449;51.676;5.812;2023-05-19T03:18:08;102529.88;;;9.29;64.55
59104;BME280;51449;51.676;5.812;2023-05-19T03:20:48;102536.50;;;9.28;64.59
59104;BME280;51449;51.676;5.812;2023-05-19T03:23:29;102536.22;;;9.29;64.66
59104;BME280;51449;51.676;5.812;2023-05-19T03:26:09;102543.38;;;9.30;64.97
59104;BME280;51449;51.676;5.812;2023-05-19T03:28:50;102537.31;;;9.28;64.48
59104;BME280;51449;51.676;5.812;2023-05-19T03:31:31;102541.72;;;9.24;64.55
59104;BME280;51449;51.676;5.812;2023-05-19T03:34:12;102537.94;;;9.20;64.43
59104;BME280;51449;51.676;5.812;2023-05-19T03:36:52;102541.25;;;9.17;64.40
59104;BME280;51449;51.676;5.812;2023-05-19T03:39:33;102537.41;;;9.13;64.54
59104;BME280;51449;51.676;5.812;2023-05-19T03:42:14;102542.94;;;9.08;65.00
59104;BME280;51449;51.676;5.812;2023-05-19T03:44:55;102552.53;;;9.10;64.86
59104;BME280;51449;51.676;5.812;2023-05-19T03:47:35;102549.78;;;9.10;64.94
59104;BME280;51449;51.676;5.812;2023-05-19T03:50:27;102550.34;;;9.12;64.87
59104;BME280;51449;51.676;5.812;2023-05-19T03:53:21;102558.59;;;9.12;65.24
59104;BME280;51449;51.676;5.812;2023-05-19T03:56:02;102558.03;;;9.15;65.14
59104;BME280;51449;51.676;5.812;2023-05-19T03:58:42;102561.00;;;9.19;65.58
59104;BME280;51449;51.676;5.812;2023-05-19T04:01:23;102561.84;;;9.19;65.27
59104;BME280;51449;51.676;5.812;2023-05-19T04:04:04;102554.44;;;9.20;65.37
59104;BME280;51449;51.676;5.812;2023-05-19T04:06:45;102562.69;;;9.20;65.45
59104;BME280;51449;51.676;5.812;2023-05-19T04:09:26;102571.16;;;9.24;65.58
59104;BME280;51449;51.676;5.812;2023-05-19T04:12:07;102566.75;;;9.28;64.94
59104;BME280;51449;51.676;5.812;2023-05-19T04:14:47;102562.63;;;9.30;65.51
59104;BME280;51449;51.676;5.812;2023-05-19T04:17:28;102572.78;;;9.35;65.53
59104;BME280;51449;51.676;5.812;2023-05-19T04:20:09;102568.66;;;9.37;65.74
59104;BME280;51449;51.676;5.812;2023-05-19T04:22:50;102567.78;;;9.42;65.81
59104;BME280;51449;51.676;5.812;2023-05-19T04:25:30;102569.97;;;9.45;66.12
59104;BME280;51449;51.676;5.812;2023-05-19T04:28:11;102567.78;;;9.47;65.47
59104;BME280;51449;51.676;5.812;2023-05-19T04:30:51;102557.31;;;9.49;65.82
59104;BME280;51449;51.676;5.812;2023-05-19T04:33:32;102569.94;;;9.50;65.96
59104;BME280;51449;51.676;5.812;2023-05-19T04:36:12;102558.13;;;9.50;65.58
59104;BME280;51449;51.676;5.812;2023-05-19T04:38:55;102556.19;;;9.50;65.99
59104;BME280;51449;51.676;5.812;2023-05-19T04:41:43;102557.53;;;9.53;65.82
59104;BME280;51449;51.676;5.812;2023-05-19T04:44:24;102552.31;;;9.56;66.27
59104;BME280;51449;51.676;5.812;2023-05-19T04:47:06;102557.25;;;9.59;66.52
59104;BME280;51449;51.676;5.812;2023-05-19T04:49:48;102553.63;;;9.64;66.33
59104;BME280;51449;51.676;5.812;2023-05-19T04:52:28;102554.72;;;9.68;66.43
59104;BME280;51449;51.676;5.812;2023-05-19T04:55:09;102556.34;;;9.69;66.60
59104;BME280;51449;51.676;5.812;2023-05-19T04:57:50;102560.22;;;9.68;67.54
59104;BME280;51449;51.676;5.812;2023-05-19T05:00:32;102559.16;;;9.64;67.58
59104;BME280;51449;51.676;5.812;2023-05-19T05:03:17;102562.72;;;9.64;67.76
59104;BME280;51449;51.676;5.812;2023-05-19T05:05:58;102556.94;;;9.66;67.73
59104;BME280;51449;51.676;5.812;2023-05-19T05:08:39;102551.97;;;9.68;67.99
59104;BME280;51449;51.676;5.812;2023-05-19T05:11:21;102557.16;;;9.70;68.48
59104;BME280;51449;51.676;5.812;2023-05-19T05:14:01;102555.19;;;9.75;68.24
59104;BME280;51449;51.676;5.812;2023-05-19T05:16:42;102559.84;;;9.80;68.25
59104;BME280;51449;51.676;5.812;2023-05-19T05:19:27;102557.91;;;9.85;68.54
59104;BME280;51449;51.676;5.812;2023-05-19T05:22:09;102559.25;;;9.88;68.87
59104;BME280;51449;51.676;5.812;2023-05-19T05:24:52;102559.50;;;9.92;68.65
59104;BME280;51449;51.676;5.812;2023-05-19T05:27:32;102553.72;;;9.93;68.33
59104;BME280;51449;51.676;5.812;2023-05-19T05:30:13;102555.06;;;9.96;68.65
59104;BME280;51449;51.676;5.812;2023-05-19T05:32:54;102563.88;;;9.98;68.42
59104;BME280;51449;51.676;5.812;2023-05-19T05:35:46;102562.16;;;10.02;68.60
59104;BME280;51449;51.676;5.812;2023-05-19T05:38:26;102570.38;;;10.12;68.27
59104;BME280;51449;51.676;5.812;2023-05-19T05:41:07;102558.44;;;10.22;68.31
59104;BME280;51449;51.676;5.812;2023-05-19T05:43:48;102568.88;;;10.30;68.37
59104;BME280;51449;51.676;5.812;2023-05-19T05:46:31;102567.13;;;10.39;68.32
59104;BME280;51449;51.676;5.812;2023-05-19T05:49:11;102567.25;;;10.53;68.11
59104;BME280;51449;51.676;5.812;2023-05-19T05:51:55;102565.72;;;10.71;68.12
59104;BME280;51449;51.676;5.812;2023-05-19T05:54:52;102565.56;;;10.86;67.77
59104;BME280;51449;51.676;5.812;2023-05-19T05:57:33;102561.84;;;10.96;67.94
59104;BME280;51449;51.676;5.812;2023-05-19T06:00:17;102562.78;;;11.10;67.69
59104;BME280;51449;51.676;5.812;2023-05-19T06:03:04;102558.81;;;11.22;66.99
59104;BME280;51449;51.676;5.812;2023-05-19T06:05:45;102554.78;;;11.33;66.89
59104;BME280;51449;51.676;5.812;2023-05-19T06:08:25;102553.22;;;11.46;67.09
59104;BME280;51449;51.676;5.812;2023-05-19T06:11:05;102554.94;;;11.61;66.77
59104;BME280;51449;51.676;5.812;2023-05-19T06:13:50;102555.63;;;11.71;66.13
59104;BME280;51449;51.676;5.812;2023-05-19T06:16:49;102551.34;;;11.79;65.63
59104;BME280;51449;51.676;5.812;2023-05-19T06:19:30;102558.09;;;11.92;65.45
59104;BME280;51449;51.676;5.812;2023-05-19T06:22:11;102557.63;;;12.04;65.11
59104;BME280;51449;51.676;5.812;2023-05-19T06:24:51;102562.16;;;12.13;64.76
59104;BME280;51449;51.676;5.812;2023-05-19T06:27:32;102559.94;;;12.15;64.34
59104;BME280;51449;51.676;5.812;2023-05-19T06:30:14;102567.09;;;12.16;64.09
59104;BME280;51449;51.676;5.812;2023-05-19T06:33:24;102558.50;;;12.18;63.87
59104;BME280;51449;51.676;5.812;2023-05-19T06:36:08;102567.53;;;12.24;63.31
59104;BME280;51449;51.676;5.812;2023-05-19T06:38:51;102561.59;;;12.30;63.38
59104;BME280;51449;51.676;5.812;2023-05-19T06:41:32;102553.13;;;12.40;63.23
59104;BME280;51449;51.676;5.812;2023-05-19T06:44:13;102563.94;;;12.56;63.49
59104;BME280;51449;51.676;5.812;2023-05-19T06:46:56;102558.63;;;12.73;63.11
59104;BME280;51449;51.676;5.812;2023-05-19T06:49:36;102558.94;;;12.85;62.60
59104;BME280;51449;51.676;5.812;2023-05-19T06:52:17;102567.44;;;13.03;62.45
59104;BME280;51449;51.676;5.812;2023-05-19T06:54:57;102564.75;;;13.25;62.16
59104;BME280;51449;51.676;5.812;2023-05-19T06:57:37;102568.06;;;13.41;61.88
59104;BME280;51449;51.676;5.812;2023-05-19T07:00:18;102567.31;;;13.49;61.06
59104;BME280;51449;51.676;5.812;2023-05-19T07:03:10;102563.91;;;13.53;60.84
59104;BME280;51449;51.676;5.812;2023-05-19T07:05:51;102557.34;;;13.62;60.47
59104;BME280;51449;51.676;5.812;2023-05-19T07:08:32;102558.00;;;13.82;60.93
59104;BME280;51449;51.676;5.812;2023-05-19T07:11:15;102555.34;;;13.99;60.56
59104;BME280;51449;51.676;5.812;2023-05-19T07:13:55;102558.50;;;14.06;59.00
59104;BME280;51449;51.676;5.812;2023-05-19T07:16:39;102553.16;;;14.10;58.78
59104;BME280;51449;51.676;5.812;2023-05-19T07:19:20;102553.91;;;14.24;58.90
59104;BME280;51449;51.676;5.812;2023-05-19T07:22:01;102562.00;;;14.43;58.11
59104;BME280;51449;51.676;5.812;2023-05-19T07:24:41;102551.53;;;14.63;57.60
59104;BME280;51449;51.676;5.812;2023-05-19T07:27:22;102553.25;;;14.81;56.75
59104;BME280;51449;51.676;5.812;2023-05-19T07:30:02;102551.19;;;14.95;57.05
59104;BME280;51449;51.676;5.812;2023-05-19T07:32:43;102554.00;;;15.13;56.84
59104;BME280;51449;51.676;5.812;2023-05-19T07:35:23;102551.13;;;15.27;55.88
59104;BME280;51449;51.676;5.812;2023-05-19T07:38:05;102554.06;;;15.48;55.78
59104;BME280;51449;51.676;5.812;2023-05-19T07:40:46;102558.50;;;15.66;54.74
59104;BME280;51449;51.676;5.812;2023-05-19T07:43:26;102556.25;;;15.94;54.78
59104;BME280;51449;51.676;5.812;2023-05-19T07:46:07;102552.13;;;16.09;53.70
59104;BME280;51449;51.676;5.812;2023-05-19T07:48:47;102541.31;;;16.25;54.12
59104;BME280;51449;51.676;5.812;2023-05-19T07:51:28;102545.47;;;16.57;53.71
59104;BME280;51449;51.676;5.812;2023-05-19T07:54:08;102546.75;;;16.68;52.48
59104;BME280;51449;51.676;5.812;2023-05-19T07:56:48;102548.53;;;16.73;51.83
59104;BME280;51449;51.676;5.812;2023-05-19T07:59:29;102549.00;;;16.75;51.76
59104;BME280;51449;51.676;5.812;2023-05-19T08:02:10;102541.50;;;16.76;51.28
59104;BME280;51449;51.676;5.812;2023-05-19T08:04:51;102537.88;;;16.84;51.46
59104;BME280;51449;51.676;5.812;2023-05-19T08:07:32;102545.94;;;17.06;50.63
59104;BME280;51449;51.676;5.812;2023-05-19T08:10:12;102533.59;;;17.16;49.08
59104;BME280;51449;51.676;5.812;2023-05-19T08:12:53;102531.56;;;17.25;49.87
59104;BME280;51449;51.676;5.812;2023-05-19T08:15:33;102533.63;;;17.37;48.69
59104;BME280;51449;51.676;5.812;2023-05-19T08:18:16;102530.84;;;17.37;47.04
59104;BME280;51449;51.676;5.812;2023-05-19T08:20:56;102527.84;;;17.42;47.98
59104;BME280;51449;51.676;5.812;2023-05-19T08:23:36;102525.13;;;17.54;48.00
59104;BME280;51449;51.676;5.812;2023-05-19T08:26:17;102513.34;;;17.70;48.38
59104;BME280;51449;51.676;5.812;2023-05-19T08:28:58;102510.09;;;17.89;48.73
59104;BME280;51449;51.676;5.812;2023-05-19T08:31:38;102506.59;;;18.13;48.17
59104;BME280;51449;51.676;5.812;2023-05-19T08:34:19;102511.28;;;18.33;46.89
59104;BME280;51449;51.676;5.812;2023-05-19T08:36:59;102505.94;;;18.53;45.19
59104;BME280;51449;51.676;5.812;2023-05-19T08:39:40;102496.91;;;18.68;45.82
59104;BME280;51449;51.676;5.812;2023-05-19T08:42:21;102499.25;;;18.91;45.11
59104;BME280;51449;51.676;5.812;2023-05-19T08:45:01;102494.13;;;19.05;44.27
59104;BME280;51449;51.676;5.812;2023-05-19T08:47:45;102488.28;;;19.10;43.24
59104;BME280;51449;51.676;5.812;2023-05-19T08:50:29;102493.41;;;19.08;42.94
59104;BME280;51449;51.676;5.812;2023-05-19T08:53:19;102480.84;;;18.90;42.62
59104;BME280;51449;51.676;5.812;2023-05-19T08:56:16;102480.63;;;18.95;44.32
59104;BME280;51449;51.676;5.812;2023-05-19T08:59:01;102487.34;;;19.06;42.46
59104;BME280;51449;51.676;5.812;2023-05-19T09:01:43;102476.75;;;19.12;41.21
59104;BME280;51449;51.676;5.812;2023-05-19T09:04:25;102487.47;;;19.22;40.69
59104;BME280;51449;51.676;5.812;2023-05-19T09:07:09;102481.38;;;19.32;39.61
59104;BME280;51449;51.676;5.812;2023-05-19T09:09:49;102483.00;;;19.33;40.32
59104;BME280;51449;51.676;5.812;2023-05-19T09:12:29;102471.00;;;19.33;40.15
59104;BME280;51449;51.676;5.812;2023-05-19T09:15:10;102466.59;;;19.32;40.45
59104;BME280;51449;51.676;5.812;2023-05-19T09:18:04;102475.16;;;19.51;40.70
59104;BME280;51449;51.676;5.812;2023-05-19T09:20:46;102466.81;;;19.67;40.53
59104;BME280;51449;51.676;5.812;2023-05-19T09:23:31;102473.03;;;19.48;39.14
59104;BME280;51449;51.676;5.812;2023-05-19T09:26:15;102466.59;;;19.32;40.16
59104;BME280;51449;51.676;5.812;2023-05-19T09:28:56;102456.06;;;19.41;39.73
59104;BME280;51449;51.676;5.812;2023-05-19T09:31:37;102449.34;;;19.58;40.17
59104;BME280;51449;51.676;5.812;2023-05-19T09:34:19;102450.84;;;19.67;39.98
59104;BME280;51449;51.676;5.812;2023-05-19T09:37:01;102447.13;;;19.92;39.54
59104;BME280;51449;51.676;5.812;2023-05-19T09:39:43;102444.44;;;20.11;38.76
59104;BME280;51449;51.676;5.812;2023-05-19T09:42:28;102454.31;;;20.37;37.65
59104;BME280;51449;51.676;5.812;2023-05-19T09:45:09;102444.03;;;20.57;36.83
59104;BME280;51449;51.676;5.812;2023-05-19T09:47:50;102446.53;;;20.62;35.57
59104;BME280;51449;51.676;5.812;2023-05-19T09:50:30;102451.41;;;20.65;35.24
59104;BME280;51449;51.676;5.812;2023-05-19T09:53:13;102445.09;;;20.68;34.35
59104;BME280;51449;51.676;5.812;2023-05-19T09:55:54;102441.19;;;20.72;35.39
59104;BME280;51449;51.676;5.812;2023-05-19T09:58:41;102443.00;;;20.81;35.19
59104;BME280;51449;51.676;5.812;2023-05-19T10:01:22;102442.19;;;20.80;34.76
59104;BME280;51449;51.676;5.812;2023-05-19T10:04:02;102442.72;;;20.70;34.93
59104;BME280;51449;51.676;5.812;2023-05-19T10:06:46;102459.00;;;20.48;34.86
59104;BME280;51449;51.676;5.812;2023-05-19T10:09:32;102451.31;;;20.29;35.12
59104;BME280;51449;51.676;5.812;2023-05-19T10:12:15;102457.38;;;20.31;35.52
59104;BME280;51449;51.676;5.812;2023-05-19T10:14:58;102449.78;;;20.32;35.14
59104;BME280;51449;51.676;5.812;2023-05-19T10:17:40;102441.00;;;20.34;34.99
59104;BME280;51449;51.676;5.812;2023-05-19T10:20:21;102444.00;;;20.25;34.15
59104;BME280;51449;51.676;5.812;2023-05-19T10:23:01;102447.97;;;20.24;35.33
59104;BME280;51449;51.676;5.812;2023-05-19T10:25:43;102445.44;;;20.35;35.11
59104;BME280;51449;51.676;5.812;2023-05-19T10:28:32;102439.41;;;20.48;35.33
59104;BME280;51449;51.676;5.812;2023-05-19T10:31:18;102425.56;;;20.56;34.88
59104;BME280;51449;51.676;5.812;2023-05-19T10:37:36;102418.13;;;20.79;33.91
59104;BME280;51449;51.676;5.812;2023-05-19T10:40:26;102415.03;;;20.84;33.98
59104;BME280;51449;51.676;5.812;2023-05-19T10:43:18;102414.47;;;20.94;34.18
59104;BME280;51449;51.676;5.812;2023-05-19T10:46:05;102406.50;;;20.97;33.96
59104;BME280;51449;51.676;5.812;2023-05-19T10:48:45;102406.47;;;21.12;34.42
59104;BME280;51449;51.676;5.812;2023-05-19T10:51:30;102410.41;;;21.47;34.87
59104;BME280;51449;51.676;5.812;2023-05-19T10:54:11;102405.06;;;21.61;33.21
59104;BME280;51449;51.676;5.812;2023-05-19T10:56:55;102407.56;;;21.66;33.02
59104;BME280;51449;51.676;5.812;2023-05-19T10:59:36;102398.72;;;21.64;33.13
59104;BME280;51449;51.676;5.812;2023-05-19T11:02:43;102398.97;;;21.78;33.55
59104;BME280;51449;51.676;5.812;2023-05-19T11:05:28;102401.78;;;21.78;32.58
59104;BME280;51449;51.676;5.812;2023-05-19T11:08:10;102399.31;;;21.54;32.69
59104;BME280;51449;51.676;5.812;2023-05-19T11:10:51;102406.97;;;21.57;32.75
59104;BME280;51449;51.676;5.812;2023-05-19T11:13:32;102406.97;;;21.57;31.50
59104;BME280;51449;51.676;5.812;2023-05-19T11:16:13;102410.91;;;21.52;31.84
59104;BME280;51449;51.676;5.812;2023-05-19T11:18:55;102401.97;;;21.66;32.53
59104;BME280;51449;51.676;5.812;2023-05-19T11:21:45;102398.03;;;21.71;32.39
59104;BME280;51449;51.676;5.812;2023-05-19T11:24:44;102405.84;;;21.81;32.71
59104;BME280;51449;51.676;5.812;2023-05-19T11:27:30;102395.19;;;21.90;32.83
59104;BME280;51449;51.676;5.812;2023-05-19T11:30:12;102395.03;;;22.06;33.12
59104;BME280;51449;51.676;5.812;2023-05-19T11:32:59;102389.06;;;22.31;32.47
59104;BME280;51449;51.676;5.812;2023-05-19T11:35:40;102390.59;;;22.51;32.23
59104;BME280;51449;51.676;5.812;2023-05-19T11:38:22;102400.25;;;22.54;31.01
59104;BME280;51449;51.676;5.812;2023-05-19T11:41:03;102394.75;;;22.34;30.64
59104;BME280;51449;51.676;5.812;2023-05-19T11:43:46;102385.41;;;22.27;30.72
59104;BME280;51449;51.676;5.812;2023-05-19T11:46:26;102390.88;;;22.19;31.65
59104;BME280;51449;51.676;5.812;2023-05-19T11:49:08;102382.09;;;22.21;30.83
59104;BME280;51449;51.676;5.812;2023-05-19T11:51:48;102374.41;;;21.95;30.73
59104;BME280;51449;51.676;5.812;2023-05-19T11:54:30;102392.91;;;21.53;31.55
59104;BME280;51449;51.676;5.812;2023-05-19T11:57:12;102378.78;;;21.11;31.89
59104;BME280;51449;51.676;5.812;2023-05-19T11:59:53;102375.53;;;21.09;32.26
59104;BME280;51449;51.676;5.812;2023-05-19T12:02:35;102375.78;;;21.00;32.34
59104;BME280;51449;51.676;5.812;2023-05-19T12:05:25;102382.63;;;21.03;32.72
59104;BME280;51449;51.676;5.812;2023-05-19T12:08:06;102368.31;;;21.08;32.31
59104;BME280;51449;51.676;5.812;2023-05-19T12:10:48;102364.19;;;21.21;32.38
59104;BME280;51449;51.676;5.812;2023-05-19T12:13:29;102370.00;;;21.32;33.24
59104;BME280;51449;51.676;5.812;2023-05-19T12:16:09;102371.94;;;21.28;33.02
59104;BME280;51449;51.676;5.812;2023-05-19T12:18:50;102373.13;;;21.07;32.52
59104;BME280;51449;51.676;5.812;2023-05-19T12:21:31;102370.69;;;21.06;33.00
59104;BME280;51449;51.676;5.812;2023-05-19T12:24:13;102362.84;;;21.34;33.63
59104;BME280;51449;51.676;5.812;2023-05-19T12:27:16;102360.63;;;21.63;33.67
59104;BME280;51449;51.676;5.812;2023-05-19T12:29:58;102365.03;;;21.64;32.40
59104;BME280;51449;51.676;5.812;2023-05-19T12:32:39;102364.63;;;21.85;32.52
59104;BME280;51449;51.676;5.812;2023-05-19T12:35:20;102361.44;;;22.10;32.31
59104;BME280;51449;51.676;5.812;2023-05-19T12:38:18;102351.41;;;22.35;31.49
59104;BME280;51449;51.676;5.812;2023-05-19T12:41:00;102347.72;;;22.58;31.08
59104;BME280;51449;51.676;5.812;2023-05-19T12:43:40;102339.81;;;22.63;31.22
59104;BME280;51449;51.676;5.812;2023-05-19T12:46:21;102350.44;;;22.51;31.74
59104;BME280;51449;51.676;5.812;2023-05-19T12:49:02;102357.81;;;22.32;31.29
59104;BME280;51449;51.676;5.812;2023-05-19T12:51:50;102342.53;;;22.30;31.64
59104;BME280;51449;51.676;5.812;2023-05-19T12:54:32;102343.53;;;22.44;32.16
59104;BME280;51449;51.676;5.812;2023-05-19T12:57:15;102348.13;;;22.56;31.25
59104;BME280;51449;51.676;5.812;2023-05-19T13:00:15;102334.72;;;22.73;32.12
59104;BME280;51449;51.676;5.812;2023-05-19T13:03:01;102335.06;;;22.98;31.40
59104;BME280;51449;51.676;5.812;2023-05-19T13:05:47;102335.06;;;22.98;30.48
59104;BME280;51449;51.676;5.812;2023-05-19T13:08:29;102324.28;;;23.03;30.01
59104;BME280;51449;51.676;5.812;2023-05-19T13:11:09;102321.84;;;22.72;30.03
59104;BME280;51449;51.676;5.812;2023-05-19T13:13:50;102329.41;;;22.68;31.38
59104;BME280;51449;51.676;5.812;2023-05-19T13:16:30;102327.09;;;22.73;30.80
59104;BME280;51449;51.676;5.812;2023-05-19T13:19:16;102315.53;;;22.82;30.98
59104;BME280;51449;51.676;5.812;2023-05-19T13:22:04;102324.06;;;22.89;30.62
59104;BME280;51449;51.676;5.812;2023-05-19T13:24:45;102316.38;;;22.82;29.62
59104;BME280;51449;51.676;5.812;2023-05-19T13:27:25;102312.00;;;22.85;30.60
59104;BME280;51449;51.676;5.812;2023-05-19T13:30:06;102310.19;;;23.00;30.07
59104;BME280;51449;51.676;5.812;2023-05-19T13:32:47;102302.25;;;23.09;29.96
59104;BME280;51449;51.676;5.812;2023-05-19T13:35:27;102304.03;;;22.91;30.92
59104;BME280;51449;51.676;5.812;2023-05-19T13:38:08;102309.69;;;22.64;31.10
59104;BME280;51449;51.676;5.812;2023-05-19T13:40:49;102305.94;;;22.53;31.14
59104;BME280;51449;51.676;5.812;2023-05-19T13:43:30;102306.66;;;22.46;30.92
59104;BME280;51449;51.676;5.812;2023-05-19T13:46:10;102298.34;;;22.53;31.38
59104;BME280;51449;51.676;5.812;2023-05-19T13:48:51;102307.34;;;22.70;31.68
59104;BME280;51449;51.676;5.812;2023-05-19T13:51:31;102302.25;;;22.79;30.29
59104;BME280;51449;51.676;5.812;2023-05-19T13:54:12;102301.97;;;22.88;30.82
59104;BME280;51449;51.676;5.812;2023-05-19T13:56:52;102298.59;;;23.05;29.67
59104;BME280;51449;51.676;5.812;2023-05-19T13:59:33;102286.50;;;23.01;29.90
59104;BME280;51449;51.676;5.812;2023-05-19T14:02:17;102284.38;;;22.94;29.66
59104;BME280;51449;51.676;5.812;2023-05-19T14:04:57;102291.53;;;22.88;31.08
59104;BME280;51449;51.676;5.812;2023-05-19T14:07:38;102286.34;;;22.90;29.61
59104;BME280;51449;51.676;5.812;2023-05-19T14:10:19;102286.19;;;22.76;29.71
59104;BME280;51449;51.676;5.812;2023-05-19T14:12:59;102289.69;;;22.69;30.42
59104;BME280;51449;51.676;5.812;2023-05-19T14:15:43;102287.84;;;22.50;29.74
59104;BME280;51449;51.676;5.812;2023-05-19T14:18:23;102292.34;;;22.28;30.18
59104;BME280;51449;51.676;5.812;2023-05-19T14:21:04;102282.00;;;22.36;30.87
59104;BME280;51449;51.676;5.812;2023-05-19T14:23:44;102281.06;;;22.55;30.61
59104;BME280;51449;51.676;5.812;2023-05-19T14:26:25;102275.38;;;22.48;30.42
59104;BME280;51449;51.676;5.812;2023-05-19T14:29:08;102284.28;;;22.53;29.93
59104;BME280;51449;51.676;5.812;2023-05-19T14:31:48;102281.88;;;22.55;30.28